Time;durP1;ratioP1;P1;durP2;ratioP2;P2;SDS_P1;SDS_P2;PMS_P1;PMS_P2;Temp;Humidity;BMP_temperature;BMP_pressure;BME280_temperature;BME280_humidity;BME280_pressure;Samples;Min_cycle;Max_cycle;Signal;HPM_P1;HPM_P2
2023/10/12 00:01:59;;;;;;;19.90;12.18;;;;;;;8.39;80.20;98515.75;10403056;28;20083;-50
2023/10/12 00:06:58;;;;;;;23.42;13.25;;;;;;;8.45;80.64;98534.84;10411038;28;20077;-49
2023/10/12 00:11:57;;;;;;;20.27;11.85;;;;;;;8.26;81.23;98527.56;10368857;28;20056;-48
2023/10/12 00:16:57;;;;;;;18.30;12.07;;;;;;;8.21;81.32;98518.88;10369140;28;20112;-50
2023/10/12 00:22:08;;;;;;;19.83;11.55;;;;;;;8.19;81.03;98518.81;10368891;28;20135;-50
2023/10/12 00:27:15;;;;;;;16.98;12.25;;;;;;;8.19;81.50;98499.84;10406971;28;20071;-49
2023/10/12 00:32:14;;;;;;;19.95;12.32;;;;;;;8.19;81.47;98505.03;10364936;28;20072;-47
2023/10/12 00:37:14;;;;;;;17.58;11.57;;;;;;;8.03;81.61;98499.53;10365089;28;20056;-49
2023/10/12 00:42:20;;;;;;;20.05;12.63;;;;;;;8.07;81.88;98505.66;10364529;28;20075;-48
2023/10/12 00:47:29;;;;;;;16.83;11.80;;;;;;;7.95;81.37;98489.88;10405927;28;20112;-48
2023/10/12 00:52:35;;;;;;;18.20;12.20;;;;;;;7.96;81.39;98492.47;10412358;28;20060;-47
2023/10/12 00:57:35;;;;;;;19.60;12.00;;;;;;;7.92;81.44;98485.53;10374447;28;20069;-49
2023/10/12 01:02:39;;;;;;;17.85;11.45;;;;;;;7.65;81.82;98440.16;10412679;28;20064;-48
2023/10/12 01:07:38;;;;;;;20.42;12.32;;;;;;;7.85;81.93;98483.66;10413471;28;20511;-48
2023/10/12 01:12:37;;;;;;;22.08;12.70;;;;;;;7.68;82.37;98464.31;10413455;28;20039;-50
2023/10/12 01:17:36;;;;;;;18.05;12.95;;;;;;;7.39;82.73;98426.66;10412548;28;20068;-47
2023/10/12 01:22:36;;;;;;;18.33;13.48;;;;;;;7.63;82.49;98472.81;10412536;28;20123;-49
2023/10/12 01:27:41;;;;;;;21.50;13.77;;;;;;;7.56;82.75;98468.38;10413947;28;20076;-50
2023/10/12 01:32:41;;;;;;;21.10;13.57;;;;;;;7.61;82.75;98471.06;10370612;28;20068;-48
2023/10/12 01:37:47;;;;;;;21.58;13.50;;;;;;;7.64;82.74;98468.56;10371880;28;20076;-50
2023/10/12 01:47:56;;;;;;;25.45;13.48;;;;;;;7.60;82.80;98482.22;10412651;28;20111;-47
2023/10/12 01:52:58;;;;;;;18.98;12.52;;;;;;;7.52;82.83;98471.75;10411175;28;20060;-50
2023/10/12 01:57:58;;;;;;;18.15;12.43;;;;;;;7.53;82.60;98476.06;10410598;28;20071;-47
2023/10/12 02:03:11;;;;;;;18.70;12.45;;;;;;;7.46;82.62;98487.09;10369752;28;20072;-50
2023/10/12 02:08:10;;;;;;;17.25;11.60;;;;;;;7.38;83.10;98480.81;10370465;28;20073;-48
2023/10/12 02:13:12;;;;;;;;;;;;;;;7.32;82.87;98485.84;10410961;28;20571;-50
2023/10/12 02:18:12;;;;;;;17.15;12.10;;;;;;;7.28;82.63;98477.16;10411247;28;20370;-49
2023/10/12 02:23:12;;;;;;;20.30;12.63;;;;;;;7.30;82.03;98479.78;10410340;28;20120;-49
2023/10/12 02:28:11;;;;;;;17.85;12.30;;;;;;;7.27;82.17;98479.72;10413901;28;20513;-50
2023/10/12 02:33:17;;;;;;;16.85;11.57;;;;;;;7.28;81.71;98481.44;10413448;28;20550;-48
2023/10/12 02:38:17;;;;;;;20.83;12.10;;;;;;;7.19;81.96;98472.66;10414072;28;20068;-50
2023/10/12 02:43:16;;;;;;;18.83;10.93;;;;;;;7.16;81.94;98485.47;10371204;28;20075;-48
2023/10/12 02:48:23;;;;;;;17.38;11.63;;;;;;;7.12;82.17;98469.88;10372120;28;20064;-47
2023/10/12 02:53:28;;;;;;;18.77;11.90;;;;;;;7.13;81.74;98474.22;10410763;28;20075;-49
2023/10/12 02:58:28;;;;;;;15.07;10.93;;;;;;;6.95;82.49;98447.13;10407967;28;21553;-48
2023/10/12 03:08:33;;;;;;;20.65;11.85;;;;;;;7.09;81.81;98468.09;10370896;28;20060;-47
2023/10/12 03:13:35;;;;;;;19.95;11.18;;;;;;;7.06;82.13;98468.03;10369466;28;20056;-48
2023/10/12 03:18:34;;;;;;;18.10;11.40;;;;;;;6.84;81.55;98443.41;10370549;28;20075;-47
2023/10/12 03:23:33;;;;;;;21.50;12.23;;;;;;;6.83;81.70;98450.28;10370404;28;20071;-48
2023/10/12 03:28:44;;;;;;;19.48;12.73;;;;;;;6.88;81.71;98447.81;10366761;28;20060;-47
2023/10/12 03:33:55;;;;;;;17.90;11.15;;;;;;;6.85;81.56;98462.34;10406867;28;20072;-48
2023/10/12 03:39:27;;;;;;;19.13;11.48;;;;;;;6.66;81.18;98443.81;10366902;28;20076;-48
2023/10/12 03:44:48;;;;;;;21.08;11.27;;;;;;;6.66;81.33;98471.34;10406426;28;20123;-47
2023/10/12 03:49:43;;;;;;;19.23;12.00;;;;;;;6.58;81.47;98458.22;10406842;28;20525;-50
2023/10/12 03:54:55;;;;;;;23.47;12.80;;;;;;;6.56;80.54;98465.03;10406908;28;20071;-47
2023/10/12 04:21:00;;;;;;;19.05;12.85;;;;;;;6.34;80.98;98454.16;10406250;28;20064;-47
2023/10/12 04:31:20;;;;;;;18.60;12.10;;;;;;;6.14;81.45;98457.88;10365214;28;20584;-50
2023/10/12 04:36:33;;;;;;;20.23;12.73;;;;;;;6.13;81.66;98458.72;10402114;28;20064;-47
2023/10/12 04:42:12;;;;;;;21.63;12.77;;;;;;;6.17;81.51;98455.41;10402783;28;20510;-47
2023/10/12 04:47:09;;;;;;;17.42;11.10;;;;;;;6.10;81.23;98459.53;10364752;28;20159;-46
2023/10/12 05:07:27;;;;;;;333.55;48.35;;;;;;;6.23;81.33;98465.88;10365870;28;20103;-46
2023/10/12 05:12:26;;;;;;;198.88;36.70;;;;;;;6.38;80.77;98460.28;10365065;28;20122;-48
2023/10/12 05:17:25;;;;;;;122.47;23.98;;;;;;;6.45;80.48;98456.16;10364699;28;20099;-47
2023/10/12 05:22:24;;;;;;;42.67;13.48;;;;;;;6.59;80.42;98467.72;10363889;28;20037;-47
2023/10/12 05:27:23;;;;;;;27.45;12.80;;;;;;;6.56;79.65;98465.94;10365321;28;20448;-46
2023/10/12 05:32:36;;;;;;;31.13;14.38;;;;;;;6.64;79.76;98476.44;10367017;28;21063;-49
2023/10/12 05:37:38;;;;;;;24.52;13.90;;;;;;;6.36;79.83;98410.38;10378887;28;20129;-49
2023/10/12 05:42:39;;;;;;;30.90;13.82;;;;;;;6.93;79.21;98477.16;10377436;28;20056;-50
2023/10/12 05:47:43;;;;;;;27.85;14.15;;;;;;;7.12;79.43;98480.19;10377860;28;20075;-51
2023/10/12 05:52:42;;;;;;;36.30;15.57;;;;;;;7.31;78.71;98486.69;10381831;28;20728;-47
2023/10/12 05:57:41;;;;;;;31.95;15.63;;;;;;;7.46;78.17;98476.75;10418611;28;20515;-48
2023/10/12 06:02:41;;;;;;;29.95;14.38;;;;;;;7.69;78.04;98479.00;10411244;28;20056;-48
2023/10/12 06:07:40;;;;;;;24.85;15.88;;;;;;;7.85;78.05;98481.06;10379563;28;20076;-48
2023/10/12 06:12:40;;;;;;;35.67;16.50;;;;;;;8.07;76.78;98482.38;10414205;28;20056;-48
2023/10/12 06:17:49;;;;;;;28.25;15.27;;;;;;;8.21;76.24;98473.19;10420068;28;20064;-50
2023/10/12 06:22:49;;;;;;;29.92;15.02;;;;;;;8.40;76.26;98469.25;10414640;28;20792;-48
2023/10/12 06:27:49;;;;;;;35.17;16.70;;;;;;;8.52;75.88;98474.63;10404666;28;20082;-47
2023/10/12 06:32:48;;;;;;;27.50;14.10;;;;;;;8.70;76.04;98473.25;10413896;28;20075;-48
2023/10/12 06:37:59;;;;;;;;;;;;;;;8.37;75.68;98380.41;10378179;28;20087;-47
2023/10/12 06:48:23;;;;;;;29.35;16.05;;;;;;;9.45;75.03;98476.25;10398424;28;20082;-49
2023/10/12 06:53:24;;;;;;;31.25;15.82;;;;;;;9.65;74.75;98472.22;10377455;28;20064;-48
2023/10/12 06:58:36;;;;;;;27.17;13.38;;;;;;;9.95;74.98;98478.66;10406265;28;20076;-49
2023/10/12 07:03:34;;;;;;;27.70;13.93;;;;;;;9.99;75.20;98468.34;10413355;28;20135;-48
2023/10/12 07:08:33;;;;;;;23.70;13.90;;;;;;;10.23;75.39;98466.91;10417498;28;20086;-51
2023/10/12 07:13:38;;;;;;;26.05;14.18;;;;;;;10.54;74.81;98470.72;10415816;28;20139;-51
2023/10/12 07:18:43;;;;;;;21.10;13.25;;;;;;;10.78;75.04;98456.25;10408898;28;20075;-50
2023/10/12 07:23:42;;;;;;;22.85;13.55;;;;;;;11.15;74.68;98454.88;10397278;28;20083;-49
2023/10/12 07:28:41;;;;;;;29.13;13.02;;;;;;;11.25;74.28;98455.81;10414916;28;20088;-47
2023/10/12 07:33:58;;;;;;;21.50;12.95;;;;;;;11.67;72.49;98459.56;10413749;28;20064;-47
2023/10/12 07:39:14;;;;;;;23.73;11.52;;;;;;;11.90;71.42;98457.09;10409867;28;20076;-49
2023/10/12 07:44:15;;;;;;;17.10;8.88;;;;;;;12.17;70.72;98453.72;10412733;28;20076;-50
2023/10/12 08:05:15;;;;;;;13.80;8.45;;;;;;;13.43;66.28;98425.25;10391149;28;20079;-51
2023/10/12 08:10:15;;;;;;;15.50;7.90;;;;;;;13.77;65.41;98431.31;10405433;28;20080;-50
2023/10/12 08:15:15;;;;;;;16.67;8.60;;;;;;;13.99;63.91;98421.63;10394856;28;20079;-51
2023/10/12 08:25:38;;;;;;;13.13;7.97;;;;;;;14.54;62.02;98414.41;10412406;28;20067;-50
2023/10/12 08:31:00;;;;;;;14.95;8.27;;;;;;;14.69;60.36;98388.19;10382803;28;20080;-52
2023/10/12 08:41:20;;;;;;;16.95;8.05;;;;;;;15.60;58.39;98382.13;10413799;28;20068;-52
2023/10/12 08:52:18;;;;;;;12.70;6.78;;;;;;;16.02;55.50;98351.13;10382980;28;20083;-52
2023/10/12 08:57:43;;;;;;;13.00;7.55;;;;;;;16.51;54.57;98351.31;10374864;28;20073;-48
2023/10/12 09:02:43;;;;;;;11.35;7.10;;;;;;;16.78;53.33;98343.88;10407998;28;20079;-50
2023/10/12 09:07:53;;;;;;;11.95;6.05;;;;;;;17.16;52.52;98339.75;10405064;28;20136;-49
2023/10/12 09:12:52;;;;;;;9.18;5.55;;;;;;;17.46;50.84;98329.59;10412791;28;20068;-50
2023/10/12 09:17:51;;;;;;;10.05;5.65;;;;;;;17.59;50.64;98317.09;10418360;28;20116;-49
2023/10/12 09:22:57;;;;;;;13.68;5.90;;;;;;;17.86;50.63;98290.28;10417715;28;20016;-50
2023/10/12 09:27:56;;;;;;;9.93;5.20;;;;;;;18.31;49.99;98297.16;10418124;28;20468;-52
2023/10/12 09:33:05;;;;;;;11.90;5.40;;;;;;;18.63;48.80;98291.13;10412134;28;20076;-48
2023/10/12 09:38:05;;;;;;;12.13;4.65;;;;;;;18.87;48.75;98292.31;10391371;28;20659;-49
2023/10/12 09:43:14;;;;;;;8.23;4.13;;;;;;;19.00;47.92;98282.34;10393868;28;20718;-51
2023/10/12 09:48:24;;;;;;;8.82;4.43;;;;;;;19.19;46.17;98267.78;10402019;28;20547;-49
2023/10/12 09:53:35;;;;;;;9.20;5.03;;;;;;;19.27;45.28;98211.44;10396518;28;20083;-50
2023/10/12 09:58:43;;;;;;;14.23;4.75;;;;;;;19.79;44.61;98236.25;10414245;28;20083;-50
2023/10/12 10:03:47;;;;;;;10.80;4.50;;;;;;;20.22;44.28;98238.41;10411968;28;20080;-52
2023/10/12 10:09:23;;;;;;;6.80;4.03;;;;;;;20.45;43.66;98236.84;10380060;28;20083;-49
2023/10/12 10:14:26;;;;;;;6.75;3.45;;;;;;;20.77;42.52;98232.22;10406295;28;20075;-49
2023/10/12 10:19:29;;;;;;;6.78;3.67;;;;;;;21.10;41.48;98224.91;10416486;28;20075;-51
2023/10/12 10:24:33;;;;;;;7.63;3.58;;;;;;;21.18;40.99;98209.66;10417576;28;20076;-51
2023/10/12 10:29:53;;;;;;;8.20;4.03;;;;;;;21.33;39.78;98206.47;10417987;28;20078;-50
2023/10/12 10:34:56;;;;;;;5.75;3.50;;;;;;;21.58;39.93;98199.41;10409429;28;20076;-53
2023/10/12 10:39:57;;;;;;;7.43;3.90;;;;;;;21.88;40.57;98190.28;10417386;28;20076;-51
2023/10/12 10:44:56;;;;;;;13.68;3.83;;;;;;;22.05;39.59;98179.06;10405964;28;20075;-51
2023/10/12 10:49:55;;;;;;;6.03;3.55;;;;;;;22.32;38.26;98171.78;10396373;28;20111;-52
2023/10/12 10:54:57;;;;;;;7.07;3.58;;;;;;;22.36;38.00;98169.88;10397509;28;20072;-49
2023/10/12 10:59:56;;;;;;;12.32;4.05;;;;;;;22.56;38.24;98164.59;10416874;28;20440;-50
2023/10/12 11:04:59;;;;;;;11.18;4.07;;;;;;;22.60;37.88;98149.47;10395752;28;20566;-49
2023/10/12 11:15:00;;;;;;;9.48;3.60;;;;;;;22.78;37.32;98137.22;10407893;28;20048;-49
2023/10/12 11:20:00;;;;;;;7.50;3.85;;;;;;;23.01;36.63;98125.63;10418793;28;20071;-48
2023/10/12 11:25:01;;;;;;;7.28;3.80;;;;;;;23.00;36.42;98108.03;10415395;28;20086;-50
2023/10/12 11:30:00;;;;;;;8.80;4.00;;;;;;;23.17;35.97;98102.81;10372406;28;20072;-51
2023/10/12 11:34:59;;;;;;;5.97;4.20;;;;;;;23.32;35.90;98095.91;10397951;28;20149;-51
2023/10/12 11:39:59;;;;;;;8.13;3.92;;;;;;;23.29;36.01;98095.22;10375962;28;20851;-51
2023/10/12 11:45:06;;;;;;;7.88;4.15;;;;;;;23.34;35.59;98091.41;10395280;28;20068;-51
2023/10/12 11:50:09;;;;;;;8.88;4.50;;;;;;;23.41;34.85;98082.25;10413460;28;20535;-50
2023/10/12 11:55:24;;;;;;;8.23;4.00;;;;;;;23.73;34.82;98077.22;10412129;28;20136;-49
2023/10/12 12:00:29;;;;;;;6.75;3.78;;;;;;;23.75;34.09;98071.84;10413771;28;20080;-49
2023/10/12 12:05:36;;;;;;;9.23;3.92;;;;;;;23.96;34.41;98060.19;10411959;28;20076;-49
2023/10/12 12:10:39;;;;;;;8.15;4.10;;;;;;;24.11;33.64;98057.69;10412040;28;20095;-52
2023/10/12 12:15:43;;;;;;;6.53;3.95;;;;;;;24.32;33.95;98056.59;10404900;28;20068;-52
2023/10/12 12:20:44;;;;;;;5.60;4.25;;;;;;;24.57;33.68;98045.56;10407728;28;20461;-48
2023/10/12 12:25:44;;;;;;;9.35;4.10;;;;;;;24.72;33.42;98043.88;10408989;28;20071;-48
2023/10/12 12:30:46;;;;;;;10.02;4.70;;;;;;;24.87;33.00;98045.75;10411978;28;20080;-50
2023/10/12 12:35:47;;;;;;;10.18;3.65;;;;;;;24.83;32.62;98040.66;10386907;28;20072;-49
2023/10/12 12:40:46;;;;;;;8.07;3.97;;;;;;;24.86;32.16;98022.78;10389858;28;20071;-48
2023/10/12 12:45:44;;;;;;;8.23;4.00;;;;;;;24.75;32.02;98026.91;10399055;28;20028;-51
2023/10/12 12:50:44;;;;;;;5.18;3.67;;;;;;;24.93;32.56;98025.09;10408803;28;20111;-49
2023/10/12 12:55:43;;;;;;;7.25;3.42;;;;;;;24.79;31.10;98017.84;10412241;28;20056;-51
2023/10/12 13:00:43;;;;;;;8.55;4.35;;;;;;;24.59;31.29;98019.81;10413591;28;20056;-49
2023/10/12 13:05:42;;;;;;;8.40;3.83;;;;;;;24.57;31.29;98011.06;10415222;28;20059;-51
2023/10/12 13:10:41;;;;;;;6.32;3.80;;;;;;;24.74;30.77;98004.84;10418120;28;20048;-51
2023/10/12 13:15:47;;;;;;;10.95;4.05;;;;;;;24.85;31.27;97998.97;10416572;28;20123;-51
2023/10/12 13:20:46;;;;;;;8.02;3.63;;;;;;;24.86;30.88;97982.97;10416963;28;20659;-52
2023/10/12 13:25:45;;;;;;;4.30;3.58;;;;;;;24.95;30.66;97996.69;10419276;28;20586;-49
2023/10/12 13:30:44;;;;;;;6.82;3.63;;;;;;;24.97;29.85;97994.78;10422088;28;20713;-49
2023/10/12 13:35:45;;;;;;;6.88;3.53;;;;;;;24.98;30.05;97991.19;10417159;28;20059;-51
2023/10/12 13:40:46;;;;;;;6.50;3.63;;;;;;;25.03;29.36;97970.53;10421121;28;20549;-51
2023/10/12 13:45:48;;;;;;;9.75;3.80;;;;;;;25.20;29.69;97978.44;10421061;28;20063;-51
2023/10/12 13:50:59;;;;;;;7.22;3.65;;;;;;;25.11;29.25;97974.47;10421661;28;20068;-51
2023/10/12 13:56:00;;;;;;;5.80;3.20;;;;;;;25.05;28.92;97972.16;10421821;28;20513;-51
2023/10/12 14:01:02;;;;;;;6.05;3.47;;;;;;;25.07;29.40;97966.78;10421256;28;20174;-51
2023/10/12 14:06:02;;;;;;;5.82;3.22;;;;;;;25.07;29.89;97966.78;10421720;28;20674;-49
2023/10/12 14:11:04;;;;;;;7.70;3.80;;;;;;;24.77;30.51;97961.34;10421735;28;20063;-52
2023/10/12 14:16:07;;;;;;;15.23;4.80;;;;;;;24.76;30.85;97959.66;10421964;28;20068;-49
2023/10/12 14:21:15;;;;;;;5.22;3.80;;;;;;;24.15;30.96;97910.75;10433845;28;20078;-49
2023/10/12 14:26:18;;;;;;;7.60;4.43;;;;;;;24.23;31.29;97962.44;10446662;28;20086;-50
2023/10/12 14:31:17;;;;;;;7.10;4.15;;;;;;;24.14;31.47;97957.59;10413709;28;20083;-51
2023/10/12 14:36:16;;;;;;;9.73;5.78;;;;;;;24.12;31.48;97946.22;10412864;28;20056;-49
2023/10/12 14:41:18;;;;;;;10.82;6.95;;;;;;;23.90;31.82;97959.75;10414819;28;20086;-49
2023/10/12 14:46:20;;;;;;;9.55;7.13;;;;;;;23.81;32.12;97962.88;10404343;28;20052;-51
2023/10/12 14:51:29;;;;;;;11.88;7.22;;;;;;;23.59;32.12;97926.88;10408429;28;20060;-50
2023/10/12 14:56:27;;;;;;;;;;;;;;;23.64;32.45;97980.50;10412897;28;20534;-51
2023/10/12 15:01:29;;;;;;;12.33;6.90;;;;;;;23.41;33.03;97978.09;10412224;28;19908;-50
2023/10/12 15:06:31;;;;;;;8.10;5.10;;;;;;;23.16;33.44;97979.31;10415475;28;20060;-50
2023/10/12 15:11:30;;;;;;;8.35;4.53;;;;;;;23.00;34.25;97979.19;10413747;28;20508;-52
2023/10/12 15:16:32;;;;;;;6.35;4.40;;;;;;;22.71;34.43;97980.53;10415435;28;20487;-51
2023/10/12 15:21:33;;;;;;;9.13;4.18;;;;;;;22.41;35.14;97981.94;10413973;28;20079;-49
2023/10/12 15:26:33;;;;;;;7.28;4.38;;;;;;;22.29;35.52;97972.75;10410723;28;20068;-48
2023/10/12 15:31:33;;;;;;;13.43;5.45;;;;;;;22.13;35.68;97965.53;10413189;28;20072;-49
2023/10/12 15:36:32;;;;;;;9.70;5.43;;;;;;;22.08;36.08;97980.72;10391325;28;20069;-52
2023/10/12 15:41:31;;;;;;;15.82;8.02;;;;;;;21.84;36.67;97993.19;10391682;28;20028;-49
2023/10/12 15:46:30;;;;;;;15.68;8.20;;;;;;;21.60;37.85;97992.44;10413459;28;20531;-48
2023/10/12 15:51:29;;;;;;;20.48;9.27;;;;;;;21.26;38.96;98008.81;10402918;28;20555;-51
2023/10/12 15:56:28;;;;;;;16.27;8.95;;;;;;;20.90;39.98;98017.22;10406360;28;20445;-48
2023/10/12 16:01:27;;;;;;;13.40;7.50;;;;;;;20.59;40.79;98022.81;10391218;28;20472;-49
2023/10/12 16:06:26;;;;;;;15.38;7.65;;;;;;;20.29;41.56;98023.81;10406722;28;20582;-51
2023/10/12 16:11:25;;;;;;;16.33;9.63;;;;;;;20.01;42.85;98037.09;10406418;28;20438;-49
2023/10/12 16:16:24;;;;;;;21.70;9.50;;;;;;;19.69;43.29;98045.25;10406919;28;20046;-49
2023/10/12 16:21:23;;;;;;;19.38;9.25;;;;;;;19.39;43.96;98047.91;10405525;28;20147;-48
2023/10/12 16:26:22;;;;;;;14.75;8.32;;;;;;;19.12;45.08;98049.66;10406507;28;20119;-48
2023/10/12 16:31:21;;;;;;;13.13;8.05;;;;;;;18.84;45.64;98049.63;10398473;28;20113;-49
2023/10/12 16:36:21;;;;;;;11.45;6.85;;;;;;;18.61;46.21;98061.63;10400642;28;20123;-49
2023/10/12 16:41:20;;;;;;;14.48;7.13;;;;;;;18.33;46.47;98062.38;10405082;28;20068;-49
2023/10/12 16:46:21;;;;;;;13.85;7.13;;;;;;;18.14;47.19;98064.66;10402744;28;20090;-51
2023/10/12 16:51:20;;;;;;;14.65;7.45;;;;;;;17.92;47.83;98071.38;10403909;28;20167;-52
2023/10/12 16:56:19;;;;;;;15.32;7.15;;;;;;;17.74;48.19;98077.91;10405858;28;20040;-51
2023/10/12 17:01:18;;;;;;;14.75;7.18;;;;;;;17.55;48.44;98074.88;10404448;28;20040;-50
2023/10/12 17:06:17;;;;;;;11.68;6.53;;;;;;;17.38;49.11;98077.91;10405441;28;20468;-48
2023/10/12 17:11:16;;;;;;;13.32;6.68;;;;;;;17.25;49.91;98071.22;10404606;28;20445;-51
2023/10/12 17:16:15;;;;;;;14.55;6.78;;;;;;;17.05;50.46;98080.38;10403680;28;20044;-52
2023/10/12 17:21:14;;;;;;;11.48;6.10;;;;;;;16.91;51.10;98077.19;10404597;28;20115;-50
2023/10/12 17:26:13;;;;;;;12.35;6.28;;;;;;;16.67;51.77;98084.63;10405212;28;20071;-50
2023/10/12 17:31:12;;;;;;;;;;;;;;;16.01;52.17;97996.88;10404691;28;20048;-51
2023/10/12 17:36:14;;;;;;;10.27;5.97;;;;;;;16.44;52.27;98085.09;10411638;28;19916;-49
2023/10/12 17:41:18;;;;;;;13.68;6.95;;;;;;;16.11;52.73;98042.06;10411969;28;20068;-52
2023/10/12 17:46:21;;;;;;;11.50;7.65;;;;;;;15.90;53.31;98022.38;10412074;28;21470;-50
2023/10/12 17:51:21;;;;;;;18.98;8.32;;;;;;;16.14;53.49;98089.16;10411351;28;20515;-49
2023/10/12 17:56:20;;;;;;;16.30;8.52;;;;;;;15.98;54.06;98085.94;10411362;28;20060;-53
2023/10/12 18:01:19;;;;;;;;;;;;;;;15.87;54.83;98090.47;10411266;28;20068;-51
2023/10/12 18:06:18;;;;;;;20.87;8.57;;;;;;;15.50;55.91;98054.41;10411203;28;19922;-51
2023/10/12 18:11:16;;;;;;;;;;;;;;;15.52;56.68;98089.25;10410871;28;20025;-52
2023/10/12 18:16:15;;;;;;;17.23;9.10;;;;;;;15.44;56.97;98097.25;10411057;28;19920;-48
2023/10/12 18:21:14;;;;;;;;;;;;;;;15.31;57.89;98100.06;10411038;28;20682;-48
2023/10/12 18:26:13;;;;;;;25.88;16.17;;;;;;;15.22;58.34;98098.44;10412001;28;19989;-49
2023/10/12 18:31:12;;;;;;;32.15;15.70;;;;;;;15.07;59.09;98103.88;10412404;28;20114;-48
2023/10/12 18:36:11;;;;;;;22.00;12.88;;;;;;;14.82;60.41;98097.19;10413239;28;20060;-50
2023/10/12 18:41:18;;;;;;;;;;;;;;;14.82;60.67;98105.03;10413495;28;20373;-51
2023/10/12 18:46:19;;;;;;;22.30;12.82;;;;;;;14.78;60.77;98103.38;10413792;28;19956;-48
2023/10/12 18:51:20;;;;;;;28.85;15.63;;;;;;;14.62;60.74;98110.50;10412590;28;20068;-51
2023/10/12 18:56:20;;;;;;;25.17;15.65;;;;;;;14.54;61.15;98116.66;10413443;28;20067;-50
2023/10/12 19:01:19;;;;;;;25.85;15.38;;;;;;;14.37;61.94;98122.94;10411619;28;20076;-52
2023/10/12 19:06:18;;;;;;;28.30;15.63;;;;;;;14.32;62.03;98126.50;10411863;28;20083;-51
2023/10/12 19:11:17;;;;;;;28.35;18.02;;;;;;;14.25;62.26;98119.59;10411157;28;20538;-50
2023/10/12 19:16:18;;;;;;;;;;;;;;;14.18;62.70;98124.00;10412129;28;20033;-51
2023/10/12 19:21:20;;;;;;;27.88;17.55;;;;;;;14.10;63.20;98120.59;10411478;28;20061;-52
2023/10/12 19:26:18;;;;;;;28.63;18.02;;;;;;;14.02;63.60;98127.63;10409564;28;20079;-49
2023/10/12 19:31:18;;;;;;;;;;;;;;;14.01;63.73;98125.88;10407467;28;20212;-50
2023/10/12 19:36:17;;;;;;;29.45;16.50;;;;;;;13.78;64.37;98116.53;10407583;28;19947;-49
2023/10/12 19:41:16;;;;;;;24.63;13.85;;;;;;;13.77;64.68;98127.81;10406666;28;20067;-49
2023/10/12 19:46:19;;;;;;;27.23;16.10;;;;;;;13.62;65.36;98118.38;10406644;28;20035;-50
2023/10/12 19:51:18;;;;;;;27.02;15.15;;;;;;;13.54;65.72;98121.06;10406169;28;20056;-50
2023/10/12 19:56:19;;;;;;;24.10;13.50;;;;;;;13.56;65.96;98132.34;10405561;28;20167;-49
2023/10/12 20:01:22;;;;;;;26.60;14.80;;;;;;;13.42;66.48;98141.09;10405971;28;20059;-49
2023/10/12 20:06:21;;;;;;;27.08;15.48;;;;;;;13.32;66.80;98141.13;10406505;28;20075;-48
2023/10/12 20:11:20;;;;;;;27.25;16.45;;;;;;;13.23;67.14;98125.53;10406071;28;20356;-51
2023/10/12 20:16:21;;;;;;;26.08;14.85;;;;;;;12.92;67.15;98088.38;10406715;28;20444;-48
2023/10/12 20:21:20;;;;;;;25.80;13.50;;;;;;;13.15;67.48;98132.56;10405581;28;20072;-48
2023/10/12 20:26:22;;;;;;;19.58;10.88;;;;;;;13.09;67.50;98125.66;10406591;28;20031;-50
2023/10/12 20:31:21;;;;;;;21.40;11.15;;;;;;;13.04;67.85;98118.72;10405588;28;20582;-50
2023/10/12 20:36:21;;;;;;;20.98;12.00;;;;;;;13.00;68.44;98114.38;10406850;28;20579;-51
2023/10/12 20:41:22;;;;;;;15.73;11.00;;;;;;;12.90;68.60;98118.78;10406182;28;20119;-49
2023/10/12 20:46:22;;;;;;;17.83;11.38;;;;;;;12.79;68.91;98117.94;10405210;28;20087;-48
2023/10/12 20:51:21;;;;;;;20.48;13.05;;;;;;;12.59;70.47;98113.69;10405178;28;20067;-48
2023/10/12 20:56:34;;;;;;;21.58;14.13;;;;;;;12.54;70.59;98115.44;10405257;28;20031;-48
2023/10/12 21:01:41;;;;;;;23.20;14.73;;;;;;;12.48;71.04;98118.91;10404687;28;20060;-47
2023/10/12 21:06:44;;;;;;;26.35;15.38;;;;;;;12.47;70.66;98126.75;10406443;28;20549;-47
2023/10/12 21:11:46;;;;;;;23.17;14.95;;;;;;;12.17;70.61;98083.41;10412894;28;20170;-47
2023/10/12 21:16:49;;;;;;;23.92;15.30;;;;;;;12.33;71.12;98113.78;10412291;28;20148;-47
2023/10/12 21:21:48;;;;;;;24.42;16.10;;;;;;;12.17;71.56;98112.91;10412794;28;20078;-50
2023/10/12 21:26:49;;;;;;;22.17;14.98;;;;;;;12.14;72.17;98120.72;10412917;28;20075;-50
2023/10/12 21:31:51;;;;;;;24.23;14.63;;;;;;;12.04;71.91;98117.25;10414860;28;20060;-49
2023/10/12 21:36:50;;;;;;;22.27;14.13;;;;;;;11.97;72.42;98128.53;10415795;28;20056;-48
2023/10/12 21:41:50;;;;;;;;;;;;;;;11.96;73.02;98118.13;10415761;28;20056;-48
2023/10/12 21:46:50;;;;;;;22.52;14.45;;;;;;;11.86;72.46;98123.31;10415348;28;19948;-51
2023/10/12 21:51:49;;;;;;;30.30;16.45;;;;;;;11.81;72.96;98117.28;10415364;28;20071;-47
2023/10/12 21:56:49;;;;;;;23.05;14.25;;;;;;;11.70;72.94;98113.81;10414160;28;20052;-50
2023/10/12 22:01:49;;;;;;;19.15;13.27;;;;;;;11.60;74.45;98119.88;10414168;28;20071;-48
2023/10/12 22:06:49;;;;;;;26.52;16.63;;;;;;;11.54;74.57;98125.06;10414547;28;20127;-51
2023/10/12 22:11:49;;;;;;;23.20;16.50;;;;;;;11.48;74.54;98118.13;10411094;28;20055;-48
2023/10/12 22:16:49;;;;;;;23.00;14.57;;;;;;;11.41;74.94;98119.84;10398207;28;20056;-50
2023/10/12 22:21:48;;;;;;;24.02;14.65;;;;;;;11.34;74.95;98118.09;10371269;28;20072;-50
2023/10/12 22:26:47;;;;;;;26.55;15.02;;;;;;;11.28;74.86;98122.41;10370608;28;20033;-50
2023/10/12 22:31:46;;;;;;;;;;;;;;;11.25;75.25;98123.28;10406461;28;20083;-48
2023/10/12 22:36:46;;;;;;;18.02;12.98;;;;;;;11.08;75.47;98119.75;10410732;28;20220;-48
2023/10/12 22:41:49;;;;;;;24.00;14.02;;;;;;;11.04;75.48;98117.16;10410246;28;20072;-48
2023/10/12 22:46:47;;;;;;;19.50;13.45;;;;;;;11.01;75.33;98119.75;10409586;28;20151;-49
2023/10/12 22:51:48;;;;;;;18.15;12.68;;;;;;;10.91;75.43;98110.19;10409701;28;20115;-48
2023/10/12 22:56:52;;;;;;;16.50;12.13;;;;;;;10.76;75.50;98110.13;10401013;28;20108;-50
2023/10/12 23:01:51;;;;;;;20.38;13.35;;;;;;;10.81;75.92;98131.75;10407504;28;20099;-50
2023/10/12 23:06:50;;;;;;;18.63;13.05;;;;;;;10.75;75.89;98131.72;10409380;28;20025;-50
2023/10/12 23:11:50;;;;;;;17.73;12.68;;;;;;;10.75;75.76;98126.53;10408611;28;20791;-48
2023/10/12 23:16:52;;;;;;;14.95;11.77;;;;;;;10.67;77.24;98125.66;10408222;28;20064;-47
2023/10/12 23:21:51;;;;;;;14.60;11.40;;;;;;;10.63;77.35;98132.53;10408315;28;20494;-48
2023/10/12 23:26:52;;;;;;;16.30;12.75;;;;;;;10.64;77.76;98134.28;10408449;28;20464;-48
2023/10/12 23:31:53;;;;;;;18.73;12.32;;;;;;;10.59;78.03;98131.66;10406776;28;20124;-48
2023/10/12 23:36:58;;;;;;;22.70;12.27;;;;;;;10.57;77.62;98122.16;10407819;28;20433;-49
2023/10/12 23:42:07;;;;;;;19.70;13.18;;;;;;;10.47;77.52;98125.53;10407529;28;20087;-48
2023/10/12 23:47:15;;;;;;;19.20;12.88;;;;;;;10.50;77.46;98116.06;10364962;28;20548;-51
2023/10/12 23:52:27;;;;;;;18.98;12.75;;;;;;;10.37;77.84;98106.47;10366829;28;20511;-48
2023/10/12 23:57:27;;;;;;;19.02;13.35;;;;;;;10.27;77.23;98109.88;10365609;28;20523;-50
